createdAt,value
2019-03-15T00:02:46.117Z,99406.36
2019-03-15T00:05:52.651Z,99415.08
2019-03-15T00:08:59.224Z,99418.50
2019-03-15T00:12:05.617Z,99418.90
2019-03-15T00:15:12.037Z,99419.27
2019-03-15T00:18:18.406Z,99411.95
2019-03-15T00:21:24.880Z,99411.95
2019-03-15T00:24:31.285Z,99424.45
2019-03-15T00:27:37.696Z,99418.22
2019-03-15T00:30:43.976Z,99413.48
2019-03-15T00:33:50.718Z,99413.48
2019-03-15T00:36:57.574Z,99419.95
2019-03-15T00:40:03.926Z,99419.95
2019-03-15T00:43:11.072Z,99421.06
2019-03-15T00:46:17.590Z,99418.02
2019-03-15T00:49:23.968Z,99419.64
2019-03-15T00:52:30.384Z,99427.44
2019-03-15T00:55:36.724Z,99430.05
2019-03-15T00:58:43.021Z,99425.95
2019-03-15T01:01:49.445Z,99432.73
2019-03-15T01:04:55.773Z,99430.16
2019-03-15T01:08:02.438Z,99437.03
2019-03-15T01:11:09.699Z,99434.77
2019-03-15T01:14:17.617Z,99436.98
2019-03-15T01:17:23.960Z,99429.53
2019-03-15T01:20:30.479Z,99430.61
2019-03-15T01:23:36.886Z,99440.91
2019-03-15T01:26:43.394Z,99438.48
2019-03-15T01:29:49.894Z,99440.16
2019-03-15T01:32:56.277Z,99446.66
2019-03-15T01:36:02.732Z,99441.02
2019-03-15T01:39:10.162Z,99443.64
2019-03-15T01:42:16.722Z,99437.59
2019-03-15T01:45:23.469Z,99438.02
2019-03-15T01:48:30.078Z,99440.52
2019-03-15T01:51:36.461Z,99445.01
2019-03-15T01:54:43.138Z,99441.17
2019-03-15T01:57:50.003Z,99439.90
2019-03-15T02:00:56.509Z,99430.42
2019-03-15T02:04:02.997Z,99435.38
2019-03-15T02:07:09.517Z,99437.43
2019-03-15T02:10:15.924Z,99438.52
2019-03-15T02:13:22.438Z,99443.28
2019-03-15T02:16:29.209Z,99442.74
2019-03-15T02:19:35.634Z,99436.84
2019-03-15T02:22:42.032Z,99445.22
2019-03-15T02:25:48.641Z,99449.15
2019-03-15T02:28:54.987Z,99459.28
2019-03-15T02:32:01.508Z,99455.09
2019-03-15T02:35:08.033Z,99456.30
2019-03-15T02:38:17.433Z,99457.94
2019-03-15T02:41:23.847Z,99464.22
2019-03-15T02:44:32.401Z,99463.52
2019-03-15T02:47:41.764Z,99460.23
2019-03-15T02:50:48.339Z,99460.19
2019-03-15T02:53:54.807Z,99454.12
2019-03-15T02:57:01.383Z,99461.53
2019-03-15T03:00:08.016Z,99460.69
2019-03-15T03:03:14.634Z,99460.80
2019-03-15T03:06:20.969Z,99457.88
2019-03-15T03:09:27.555Z,99451.77
2019-03-15T03:12:34.016Z,99448.75
2019-03-15T03:15:40.386Z,99451.17
2019-03-15T03:18:46.893Z,99449.15
2019-03-15T03:21:53.256Z,99453.18
2019-03-15T03:24:59.658Z,99457.47
2019-03-15T03:28:06.034Z,99455.80
2019-03-15T03:31:15.070Z,99457.20
2019-03-15T03:34:20.829Z,99449.59
2019-03-15T03:37:27.297Z,99456.44
2019-03-15T03:40:33.662Z,99449.42
2019-03-15T03:43:40.025Z,99448.38
2019-03-15T03:46:46.286Z,99446.73
2019-03-15T03:49:53.569Z,99440.56
2019-03-15T03:53:00.101Z,99440.56
2019-03-15T03:56:06.477Z,99448.92
2019-03-15T03:59:12.812Z,99454.39
2019-03-15T04:02:19.228Z,99448.14
2019-03-15T04:05:25.865Z,99447.30
2019-03-15T04:08:32.281Z,99445.06
2019-03-15T04:11:38.613Z,99443.02
2019-03-15T04:14:45.055Z,99442.74
2019-03-15T04:17:51.404Z,99445.86
2019-03-15T04:20:57.573Z,99440.42
2019-03-15T04:24:03.961Z,99158.44
2019-03-15T04:27:10.640Z,99446.19
2019-03-15T04:30:17.096Z,99443.28
2019-03-15T04:33:23.514Z,99433.48
2019-03-15T04:36:30.110Z,99442.91
2019-03-15T04:39:36.440Z,99440.82
2019-03-15T04:42:42.767Z,99441.83
2019-03-15T04:45:50.067Z,99453.55
2019-03-15T04:48:56.487Z,99441.53
2019-03-15T04:52:03.438Z,99445.56
2019-03-15T04:55:10.107Z,99440.12
2019-03-15T04:58:16.784Z,99449.01
2019-03-15T05:01:23.112Z,99458.98
2019-03-15T05:04:29.600Z,99458.98
2019-03-15T05:07:35.925Z,99464.17
2019-03-15T05:10:43.452Z,99457.09
2019-03-15T05:13:49.777Z,99450.81
2019-03-15T05:16:56.191Z,99450.25
2019-03-15T05:20:02.549Z,99449.03
2019-03-15T05:23:08.965Z,99447.17
2019-03-15T05:26:15.258Z,99445.79
2019-03-15T05:29:22.818Z,99431.47
2019-03-15T05:32:31.051Z,99431.17
2019-03-15T05:35:38.819Z,99436.17
2019-03-15T05:38:45.180Z,99429.41
2019-03-15T05:41:54.652Z,99438.55
2019-03-15T05:45:01.264Z,99432.73
2019-03-15T05:48:10.352Z,99437.52
2019-03-15T05:51:16.743Z,99432.47
2019-03-15T05:54:23.474Z,99429.08
2019-03-15T05:57:30.518Z,99432.23
2019-03-15T06:00:37.482Z,99432.73
2019-03-15T06:03:48.929Z,99428.33
2019-03-15T06:06:52.090Z,99431.31
2019-03-15T06:09:58.566Z,99435.67
2019-03-15T06:13:05.059Z,99428.89
2019-03-15T06:16:11.588Z,99421.80
2019-03-15T06:19:17.940Z,99422.97
2019-03-15T06:22:24.412Z,99425.45
2019-03-15T06:25:30.909Z,99414.33
2019-03-15T06:28:37.250Z,99423.59
2019-03-15T06:31:43.673Z,99415.46
2019-03-15T06:34:50.376Z,99419.44
2019-03-15T06:37:58.563Z,99419.69
2019-03-15T06:41:06.465Z,99417.05
2019-03-15T06:44:12.854Z,99423.02
2019-03-15T06:47:20.191Z,99423.64
2019-03-15T06:50:26.681Z,99415.83
2019-03-15T06:53:33.097Z,99418.02
2019-03-15T06:56:40.411Z,99419.53
2019-03-15T06:59:47.292Z,99412.50
2019-03-15T07:02:53.964Z,99418.77
2019-03-15T07:06:01.296Z,99417.75
2019-03-15T07:09:07.890Z,99410.95
2019-03-15T07:12:14.290Z,99420.94
2019-03-15T07:15:30.872Z,99425.72
2019-03-15T07:18:37.336Z,99418.79
2019-03-15T07:21:46.746Z,99422.50
2019-03-15T07:24:51.992Z,99415.66
2019-03-15T07:27:58.322Z,99413.21
2019-03-15T07:31:07.182Z,99413.75
2019-03-15T07:34:14.048Z,99408.31
2019-03-15T07:37:21.479Z,99407.44
2019-03-15T07:40:27.971Z,99401.28
2019-03-15T07:43:34.232Z,99397.54
2019-03-15T07:46:40.616Z,99395.02
2019-03-15T07:49:47.097Z,99392.09
2019-03-15T07:52:54.636Z,99394.09
2019-03-15T07:56:02.148Z,99394.77
2019-03-15T07:59:11.960Z,99389.17
2019-03-15T08:02:20.148Z,99397.80
2019-03-15T08:05:26.587Z,99387.59
2019-03-15T08:08:36.224Z,99388.94
2019-03-15T08:11:42.816Z,99384.63
2019-03-15T08:14:50.829Z,99378.63
2019-03-15T08:17:59.271Z,99373.46
2019-03-15T08:21:05.740Z,99372.95
2019-03-15T08:24:12.001Z,99368.30
2019-03-15T08:27:18.447Z,99367.39
2019-03-15T08:30:25.413Z,99363.89
2019-03-15T08:33:31.736Z,99372.19
2019-03-15T08:36:38.003Z,99365.99
2019-03-15T08:39:44.605Z,99365.08
2019-03-15T08:42:51.235Z,99359.77
2019-03-15T08:45:57.594Z,99364.88
2019-03-15T08:49:04.134Z,99358.03
2019-03-15T08:52:10.593Z,99363.83
2019-03-15T08:55:20.514Z,99352.96
2019-03-15T08:58:26.864Z,99347.45
2019-03-15T09:01:33.350Z,99351.83
2019-03-15T09:04:39.891Z,99357.83
2019-03-15T09:07:46.752Z,99351.83
2019-03-15T09:10:53.125Z,99350.77
2019-03-15T09:13:59.397Z,99350.78
2019-03-15T09:17:05.881Z,99353.89
2019-03-15T09:20:12.386Z,99347.75
2019-03-15T09:23:18.638Z,99342.88
2019-03-15T09:26:25.200Z,99343.08
2019-03-15T09:29:31.778Z,99340.78
2019-03-15T09:32:38.167Z,99341.81
2019-03-15T09:35:44.454Z,99326.05
2019-03-15T09:38:50.854Z,99331.63
2019-03-15T09:41:57.468Z,99321.90
2019-03-15T09:45:04.175Z,99326.75
2019-03-15T09:48:10.571Z,99322.90
2019-03-15T09:51:20.414Z,99329.97
2019-03-15T09:54:27.265Z,99325.02
2019-03-15T09:57:33.708Z,99316.69
2019-03-15T10:00:40.067Z,99328.56
2019-03-15T10:03:46.705Z,99326.70
2019-03-15T10:06:53.292Z,99316.11
2019-03-15T10:10:12.933Z,99314.86
2019-03-15T10:13:08.934Z,99317.84
2019-03-15T10:16:15.401Z,99309.14
2019-03-15T10:19:21.853Z,99317.11
2019-03-15T10:22:28.193Z,99302.81
2019-03-15T10:25:46.128Z,99301.78
2019-03-15T10:28:42.683Z,99296.58
2019-03-15T10:31:49.085Z,99302.61
2019-03-15T10:34:55.420Z,99301.15
2019-03-15T10:38:01.820Z,99302.17
2019-03-15T10:41:08.331Z,99297.94
2019-03-15T10:44:15.056Z,99292.54
2019-03-15T10:47:21.505Z,99291.92
2019-03-15T10:50:27.914Z,99287.23
2019-03-15T10:53:34.397Z,99289.84
2019-03-15T10:56:40.711Z,99284.51
2019-03-15T10:59:47.169Z,99261.06
2019-03-15T11:02:53.493Z,99261.06
2019-03-15T11:06:00.161Z,99267.25
2019-03-15T11:09:07.391Z,99268.08
2019-03-15T11:12:13.791Z,99257.84
2019-03-15T11:15:20.278Z,99257.84
2019-03-15T11:18:26.691Z,99265.52
2019-03-15T11:21:33.114Z,99255.02
2019-03-15T11:24:39.633Z,99259.38
2019-03-15T11:27:46.027Z,99250.45
2019-03-15T11:30:52.631Z,99248.59
2019-03-15T11:33:59.056Z,99247.34
2019-03-15T11:37:05.498Z,99249.80
2019-03-15T11:40:14.089Z,99244.41
2019-03-15T11:43:20.018Z,99246.86
2019-03-15T11:46:26.519Z,99244.45
2019-03-15T11:49:32.896Z,99235.00
2019-03-15T11:52:39.332Z,99246.82
2019-03-15T11:55:45.840Z,99234.03
2019-03-15T11:58:52.279Z,99229.47
2019-03-15T12:02:04.506Z,99215.36
2019-03-15T12:05:11.015Z,99224.48
2019-03-15T12:08:19.057Z,99210.44
2019-03-15T12:11:26.816Z,99212.14
2019-03-15T12:14:40.822Z,99200.52
2019-03-15T12:17:42.050Z,99206.34
2019-03-15T12:20:49.403Z,99199.17
2019-03-15T12:23:55.922Z,99191.36
2019-03-15T12:27:04.726Z,99187.49
2019-03-15T12:30:14.143Z,99184.14
2019-03-15T12:33:20.393Z,99185.58
2019-03-15T12:36:32.170Z,99183.13
2019-03-15T12:39:41.502Z,99173.61
2019-03-15T12:42:47.983Z,99173.43
2019-03-15T12:45:54.438Z,99163.64
2019-03-15T12:49:01.429Z,99170.44
2019-03-15T12:52:07.929Z,99172.13
2019-03-15T12:55:14.521Z,99170.44
2019-03-15T12:58:20.917Z,99163.63
2019-03-15T13:01:27.435Z,99161.30
2019-03-15T13:04:33.884Z,99157.27
2019-03-15T13:07:40.308Z,99169.55
2019-03-15T13:10:47.108Z,99151.69
2019-03-15T13:13:53.692Z,99160.73
2019-03-15T13:17:00.065Z,99150.47
2019-03-15T13:20:07.257Z,99151.69
2019-03-15T13:23:16.603Z,99141.66
2019-03-15T13:26:23.053Z,99133.83
2019-03-15T13:29:30.613Z,99129.50
2019-03-15T13:32:37.958Z,99142.20
2019-03-15T13:35:44.352Z,99128.06
2019-03-15T13:38:50.807Z,99118.56
2019-03-15T13:41:57.367Z,99118.10
2019-03-15T13:45:04.241Z,99115.51
2019-03-15T13:48:11.789Z,99101.63
2019-03-15T13:51:22.583Z,99100.17
2019-03-15T13:54:33.451Z,99096.23
2019-03-15T13:57:39.809Z,99101.09
2019-03-15T14:00:48.479Z,99098.67
2019-03-15T14:03:58.519Z,99088.89
2019-03-15T14:07:04.798Z,99082.83
2019-03-15T14:10:11.541Z,99084.09
2019-03-15T14:13:18.483Z,99074.05
2019-03-15T14:16:27.161Z,99067.44
2019-03-15T14:19:41.578Z,99070.57
2019-03-15T14:22:50.398Z,99068.47
2019-03-15T14:25:56.711Z,99061.43
2019-03-15T14:29:06.403Z,99065.25
2019-03-15T14:32:17.246Z,99059.53
2019-03-15T14:35:23.774Z,99041.41
2019-03-15T14:38:30.493Z,99041.41
2019-03-15T14:41:42.581Z,99041.41
2019-03-15T14:44:49.265Z,99043.92
2019-03-15T14:47:57.342Z,99041.23
2019-03-15T14:51:05.589Z,99036.26
2019-03-15T14:54:14.697Z,99030.75
2019-03-15T14:57:21.361Z,99021.69
2019-03-15T15:00:27.765Z,99027.06
2019-03-15T15:03:34.260Z,99019.72
2019-03-15T15:06:42.439Z,99019.90
2019-03-15T15:09:50.439Z,99023.92
2019-03-15T15:12:56.910Z,99017.13
2019-03-15T15:16:04.550Z,99013.59
2019-03-15T15:19:12.630Z,99009.47
2019-03-15T15:22:27.907Z,99006.34
2019-03-15T15:25:32.931Z,99006.59
2019-03-15T15:28:39.450Z,98980.52
2019-03-15T15:31:51.587Z,98980.52
2019-03-15T15:34:59.630Z,98989.38
2019-03-15T15:38:09.037Z,98983.56
2019-03-15T15:41:21.285Z,98979.80
2019-03-15T15:44:30.019Z,98977.91
2019-03-15T15:47:36.443Z,98977.36
2019-03-15T15:50:45.573Z,98969.38
2019-03-15T15:53:51.925Z,98961.41
2019-03-15T15:56:59.274Z,98961.98
2019-03-15T16:00:07.742Z,98964.16
2019-03-15T16:03:16.152Z,98963.19
2019-03-15T16:06:22.853Z,98959.72
2019-03-15T16:09:39.310Z,98954.34
2019-03-15T16:12:44.946Z,98764.56
2019-03-15T16:15:51.490Z,98943.94
2019-03-15T16:18:59.581Z,98939.17
2019-03-15T16:22:10.437Z,98937.97
2019-03-15T16:25:17.703Z,98927.95
2019-03-15T16:28:31.323Z,98932.98
2019-03-15T16:31:33.990Z,98926.44
2019-03-15T16:34:41.342Z,98928.27
2019-03-15T16:37:48.595Z,98923.31
2019-03-15T16:40:55.501Z,98916.92
2019-03-15T16:44:03.840Z,98919.09
2019-03-15T16:47:10.328Z,98918.92
2019-03-15T16:50:16.844Z,98906.88
2019-03-15T16:53:23.357Z,98910.06
2019-03-15T16:56:31.172Z,98899.04
2019-03-15T16:59:37.725Z,98907.38
2019-03-15T17:02:44.408Z,98904.84
2019-03-15T17:05:50.705Z,98896.33
2019-03-15T17:08:58.206Z,98893.63
2019-03-15T17:12:06.175Z,98899.30
2019-03-15T17:15:13.335Z,98881.88
2019-03-15T17:18:21.994Z,98886.35
2019-03-15T17:21:28.617Z,98880.53
2019-03-15T17:24:35.212Z,98871.69
2019-03-15T17:27:44.814Z,98872.92
2019-03-15T17:30:54.410Z,98862.58
2019-03-15T17:34:00.832Z,98866.93
2019-03-15T17:37:09.697Z,98869.62
2019-03-15T17:40:18.781Z,98855.83
2019-03-15T17:43:28.069Z,98853.14
2019-03-15T17:46:37.205Z,98855.23
2019-03-15T17:49:46.140Z,98843.52
2019-03-15T17:52:51.906Z,98850.26
2019-03-15T17:56:02.110Z,98849.09
2019-03-15T17:59:12.634Z,98838.67
2019-03-15T18:02:19.696Z,98835.44
2019-03-15T18:05:26.131Z,98841.54
2019-03-15T18:08:36.100Z,98838.31
2019-03-15T18:11:44.777Z,98832.57
2019-03-15T18:14:51.216Z,98836.15
2019-03-15T18:18:00.000Z,98824.73
2019-03-15T18:21:05.657Z,98826.59
2019-03-15T18:24:16.524Z,98832.02
2019-03-15T18:27:23.961Z,98830.76
2019-03-15T18:30:38.286Z,98811.89
2019-03-15T18:33:46.466Z,98809.20
2019-03-15T18:36:58.975Z,98813.13
2019-03-15T18:40:11.313Z,98803.85
2019-03-15T18:43:21.078Z,98807.13
2019-03-15T18:46:27.451Z,98806.97
2019-03-15T18:49:35.620Z,98799.41
2019-03-15T18:52:43.721Z,98797.55
2019-03-15T18:55:55.447Z,98794.70
2019-03-15T18:59:02.264Z,98797.81
2019-03-15T19:02:11.401Z,98802.30
2019-03-15T19:05:20.674Z,98790.65
2019-03-15T19:08:28.937Z,98791.99
2019-03-15T19:11:35.383Z,98787.88
2019-03-15T19:14:46.049Z,98784.14
2019-03-15T19:17:52.543Z,98790.83
2019-03-15T19:21:01.995Z,98790.17
2019-03-15T19:24:08.519Z,98781.05
2019-03-15T19:27:17.906Z,98783.98
2019-03-15T19:30:27.911Z,98779.27
2019-03-15T19:33:36.734Z,98773.31
2019-03-15T19:36:46.881Z,98773.56
2019-03-15T19:39:53.368Z,98775.67
2019-03-15T19:43:02.020Z,98775.23
2019-03-15T19:46:09.593Z,98773.60
2019-03-15T19:49:16.215Z,98778.36
2019-03-15T19:52:22.847Z,98764.01
2019-03-15T19:55:29.366Z,98774.33
2019-03-15T19:58:35.793Z,98764.09
2019-03-15T20:01:42.202Z,98763.11
2019-03-15T20:04:54.487Z,98763.54
2019-03-15T20:08:00.932Z,98756.95
2019-03-15T20:11:10.637Z,98755.45
2019-03-15T20:14:19.491Z,98750.54
2019-03-15T20:17:34.031Z,98754.58
2019-03-15T20:20:41.796Z,98753.43
2019-03-15T20:23:50.459Z,98723.70
2019-03-15T20:26:59.280Z,98754.11
2019-03-15T20:30:20.217Z,98743.64
2019-03-15T20:33:15.394Z,98758.78
2019-03-15T20:36:24.632Z,98746.73
2019-03-15T20:39:31.744Z,98752.99
2019-03-15T20:42:38.256Z,98750.37
2019-03-15T20:45:47.626Z,98749.86
2019-03-15T20:48:54.074Z,98752.20
2019-03-15T20:52:00.421Z,98749.90
2019-03-15T20:55:07.025Z,98747.28
2019-03-15T20:58:21.031Z,98745.26
2019-03-15T21:01:28.112Z,98746.69
2019-03-15T21:04:34.582Z,98748.44
2019-03-15T21:07:44.177Z,98756.00
2019-03-15T21:10:51.639Z,98756.23
2019-03-15T21:13:58.290Z,98752.44
2019-03-15T21:17:06.619Z,98738.37
2019-03-15T21:20:18.196Z,98746.20
2019-03-15T21:23:27.151Z,98747.79
2019-03-15T21:26:35.403Z,98744.68
2019-03-15T21:29:48.086Z,98744.53
2019-03-15T21:32:56.390Z,98742.23
2019-03-15T21:36:03.232Z,98745.69
2019-03-15T21:39:10.221Z,98742.25
2019-03-15T21:42:19.714Z,98737.88
2019-03-15T21:45:32.318Z,98741.93
2019-03-15T21:48:40.123Z,98736.53
2019-03-15T21:51:56.739Z,98750.92
2019-03-15T21:55:07.615Z,98743.00
2019-03-15T21:58:16.160Z,98400.33
2019-03-15T22:01:24.755Z,98735.66
2019-03-15T22:04:38.325Z,98737.45
2019-03-15T22:07:44.711Z,98742.16
2019-03-15T22:10:54.850Z,98734.44
2019-03-15T22:14:04.351Z,98736.37
2019-03-15T22:17:10.781Z,98748.67
2019-03-15T22:20:19.841Z,98748.67
2019-03-15T22:23:26.118Z,98748.25
2019-03-15T22:26:34.164Z,98747.73
2019-03-15T22:29:52.959Z,98737.64
2019-03-15T22:32:52.463Z,98737.64
2019-03-15T22:36:03.913Z,98744.30
2019-03-15T22:39:12.028Z,98740.14
2019-03-15T22:42:18.545Z,98731.06
2019-03-15T22:45:27.990Z,98731.06
2019-03-15T22:48:39.241Z,98747.05
2019-03-15T22:51:54.202Z,98745.33
2019-03-15T22:55:05.578Z,98738.97
2019-03-15T22:58:13.956Z,98755.73
2019-03-15T23:01:30.149Z,98747.84
2019-03-15T23:04:34.354Z,98754.86
2019-03-15T23:07:42.226Z,98742.66
2019-03-15T23:10:51.536Z,98749.65
2019-03-15T23:13:59.065Z,98744.02
2019-03-15T23:17:05.986Z,98759.42
2019-03-15T23:20:12.571Z,98759.00
2019-03-15T23:23:24.417Z,98761.85
2019-03-15T23:26:31.161Z,98777.19
2019-03-15T23:29:40.596Z,98774.26
2019-03-15T23:32:50.523Z,98774.48
2019-03-15T23:35:57.503Z,98778.64
2019-03-15T23:39:05.337Z,98777.09
2019-03-15T23:42:12.528Z,98776.03
2019-03-15T23:45:20.816Z,98787.64
2019-03-15T23:48:29.843Z,98784.62
2019-03-15T23:51:36.258Z,98790.19
2019-03-15T23:54:42.821Z,98789.59
2019-03-15T23:57:50.905Z,98787.28
